Time;durP1;ratioP1;P1;durP2;ratioP2;P2;SDS_P1;SDS_P2;PMS_P1;PMS_P2;Temp;Humidity;BMP_temperature;BMP_pressure;BME280_temperature;BME280_humidity;BME280_pressure;Samples;Min_cycle;Max_cycle;Signal;HPM_P1;HPM_P2
2024/02/04 00:01:35;;;;;;;3.30;2.70;;;;;;;-147.86;100.00;29156.03;105715;1257;59553;-59
2024/02/04 00:04:03;;;;;;;2.70;2.50;;;;;;;-147.86;100.00;28504.49;105576;1257;71795;-60
2024/02/04 00:06:31;;;;;;;3.30;2.80;;;;;;;-147.86;100.00;27898.34;105543;1257;62120;-60
2024/02/04 00:08:59;;;;;;;3.60;2.60;;;;;;;-147.86;100.00;27282.13;105619;1257;71376;-60
2024/02/04 00:11:27;;;;;;;3.50;2.90;;;;;;;-147.86;100.00;26657.78;105491;1257;59801;-60
2024/02/04 00:13:55;;;;;;;2.80;2.40;;;;;;;-147.86;100.00;26142.33;105545;1262;59858;-61
2024/02/04 00:16:22;;;;;;;3.90;2.60;;;;;;;-147.86;100.00;25657.74;105595;1260;71270;-59
2024/02/04 00:18:50;;;;;;;2.90;2.70;;;;;;;-147.86;100.00;25142.44;105597;1257;63502;-60
2024/02/04 00:21:19;;;;;;;2.60;2.30;;;;;;;-147.86;100.00;24676.71;105636;1257;71439;-59
2024/02/04 00:23:46;;;;;;;2.90;2.60;;;;;;;-147.86;100.00;24056.70;105578;1260;60552;-58
2024/02/04 00:26:15;;;;;;;2.80;2.60;;;;;;;-147.86;100.00;23385.29;105633;1261;59669;-60
2024/02/04 00:28:43;;;;;;;2.70;2.40;;;;;;;-147.86;100.00;22790.38;105642;1260;72997;-59
2024/02/04 00:31:11;;;;;;;3.20;2.30;;;;;;;-147.86;100.00;22336.54;105588;1256;63353;-60
2024/02/04 00:33:39;;;;;;;2.50;2.30;;;;;;;-147.86;100.00;21941.92;105577;1256;71447;-60
2024/02/04 00:36:07;;;;;;;2.50;2.30;;;;;;;-147.86;100.00;21636.53;105702;1258;59844;-60
2024/02/04 00:38:35;;;;;;;3.40;2.30;;;;;;;-147.86;100.00;21449.96;105541;1259;60364;-60
2024/02/04 00:41:03;;;;;;;2.70;2.50;;;;;;;-147.86;100.00;21341.71;105580;1258;72952;-58
2024/02/04 00:43:31;;;;;;;3.30;2.90;;;;;;;-147.86;100.00;21312.13;105632;1257;64456;-60
2024/02/04 00:46:00;;;;;;;2.70;2.50;;;;;;;-147.86;100.00;21286.10;105570;1260;72394;-58
2024/02/04 00:48:28;;;;;;;2.80;2.50;;;;;;;-147.86;100.00;21285.74;105646;1257;60360;-61
2024/02/04 00:50:57;;;;;;;4.20;2.80;;;;;;;-147.86;100.00;21376.95;105539;1263;59625;-59
2024/02/04 00:53:28;;;;;;;5.70;2.80;;;;;;;-147.86;100.00;21409.33;105543;1263;72978;-61
2024/02/04 00:55:55;;;;;;;2.50;2.30;;;;;;;-147.86;100.00;21482.60;105878;1251;63497;-60
2024/02/04 00:58:23;;;;;;;2.50;2.30;;;;;;;-147.86;100.00;21670.31;105778;1257;72340;-59
2024/02/04 01:00:51;;;;;;;2.30;2.10;;;;;;;-147.86;100.00;21807.41;105790;1252;60728;-60
2024/02/04 01:03:19;;;;;;;2.30;1.90;;;;;;;-147.86;100.00;21895.48;105864;1257;60534;-60
2024/02/04 01:05:48;;;;;;;2.40;2.20;;;;;;;-147.86;100.00;22093.35;105727;1251;72593;-60
2024/02/04 01:08:15;;;;;;;2.80;2.50;;;;;;;-147.86;100.00;22296.29;105707;1251;63086;-61
2024/02/04 01:10:43;;;;;;;2.30;2.10;;;;;;;-147.86;100.00;22533.50;105781;1251;72649;-63
2024/02/04 01:13:11;;;;;;;2.80;2.50;;;;;;;-147.86;100.00;22789.44;105898;1251;60692;-57
2024/02/04 01:15:39;;;;;;;3.40;2.60;;;;;;;-147.86;100.00;22963.60;105843;1257;60386;-60
2024/02/04 01:18:07;;;;;;;2.40;2.20;;;;;;;-147.86;100.00;23188.39;105808;1251;72548;-61
2024/02/04 01:20:35;;;;;;;2.80;2.60;;;;;;;-147.86;100.00;23263.63;105868;1256;63095;-58
2024/02/04 01:23:03;;;;;;;2.40;2.20;;;;;;;-147.86;100.00;23432.72;105847;1254;70367;-59
2024/02/04 01:25:31;;;;;;;4.00;2.80;;;;;;;-147.86;100.00;23606.53;105764;1251;61057;-62
2024/02/04 01:27:58;;;;;;;3.70;2.30;;;;;;;-147.86;100.00;23874.55;105882;1253;60415;-61
2024/02/04 01:30:28;;;;;;;2.50;2.30;;;;;;;-147.86;100.00;23986.41;105933;1251;72564;-58
2024/02/04 01:32:56;;;;;;;2.50;2.30;;;;;;;-147.86;100.00;23874.74;105840;1251;63234;-60
2024/02/04 01:35:24;;;;;;;3.40;2.60;;;;;;;-147.86;100.00;24201.55;105813;1254;71343;-61
2024/02/04 01:37:52;;;;;;;4.80;2.50;;;;;;;-147.86;100.00;24367.19;105945;1251;60450;-60
2024/02/04 01:40:20;;;;;;;2.80;2.30;;;;;;;-147.86;100.00;24657.52;105924;1257;60364;-58
2024/02/04 01:42:48;;;;;;;3.10;2.70;;;;;;;-147.86;100.00;24880.48;105822;1257;73815;-58
2024/02/04 01:45:16;;;;;;;3.30;2.30;;;;;;;-147.86;100.00;25143.98;105816;1251;63110;-61
2024/02/04 01:47:43;;;;;;;4.00;2.80;;;;;;;-147.86;100.00;25354.11;105773;1252;70772;-59
2024/02/04 01:50:11;;;;;;;2.80;2.40;;;;;;;-147.86;100.00;25608.62;105753;1254;60473;-59
2024/02/04 01:52:39;;;;;;;2.70;2.50;;;;;;;-147.86;100.00;25793.40;105780;1257;60401;-60
2024/02/04 01:55:07;;;;;;;4.10;2.80;;;;;;;-147.86;100.00;25901.83;105801;1254;73036;-59
2024/02/04 01:57:35;;;;;;;7.00;2.30;;;;;;;-147.86;100.00;26045.70;105842;1254;63102;-58
2024/02/04 02:00:04;;;;;;;2.60;2.30;;;;;;;-147.86;100.00;26296.35;105671;1253;73416;-59
2024/02/04 02:02:33;;;;;;;5.40;1.90;;;;;;;-147.86;100.00;26347.49;105814;1256;60501;-57
2024/02/04 02:05:01;;;;;;;4.90;2.50;;;;;;;-147.86;100.00;26383.41;105829;1254;60521;-58
2024/02/04 02:07:29;;;;;;;2.50;2.30;;;;;;;-147.86;100.00;26602.38;105778;1253;72544;-60
2024/02/04 02:09:57;;;;;;;2.30;2.10;;;;;;;-147.86;100.00;26620.34;105648;1254;62588;-60
2024/02/04 02:12:36;;;;;;;3.40;2.40;;;;;;;-147.86;100.00;26695.95;105656;1257;71414;-59
2024/02/04 02:15:14;;;;;;;3.90;2.10;;;;;;;-147.86;100.00;25219.53;105882;1257;60514;-59
2024/02/04 02:17:51;;;;;;;2.50;2.30;;;;;;;-147.86;100.00;25146.50;105808;1254;60395;-60
2024/02/04 02:20:55;;;;;;;2.40;2.10;;;;;;;-147.86;100.00;25192.41;105800;1254;74067;-58
2024/02/04 02:23:49;;;;;;;2.40;2.10;;;;;;;-147.86;100.00;22328.51;105397;1260;63536;-59
2024/02/04 02:26:17;;;;;;;1.90;1.80;;;;;;;-147.86;100.00;22848.79;105894;1254;72655;-60
2024/02/04 02:28:45;;;;;;;2.60;2.40;;;;;;;-147.86;100.00;25739.12;105729;1253;60934;-56
2024/02/04 02:31:14;;;;;;;2.80;2.10;;;;;;;-147.86;100.00;25996.32;105847;1257;60422;-59
2024/02/04 02:33:44;;;;;;;2.10;2.00;;;;;;;-147.86;100.00;25641.80;105772;1254;72543;-62
2024/02/04 02:36:14;;;;;;;3.50;2.00;;;;;;;-147.86;100.00;25960.77;105722;1257;63084;-58
2024/02/04 02:38:46;;;;;;;4.60;2.30;;;;;;;-147.86;100.00;25527.38;105761;1254;72626;-58
2024/02/04 02:41:14;;;;;;;3.00;1.90;;;;;;;-147.86;100.00;24952.60;105775;1254;61696;-59
2024/02/04 02:43:41;;;;;;;1.80;1.70;;;;;;;-147.86;100.00;25283.60;105692;1252;60357;-61
2024/02/04 02:46:10;;;;;;;2.90;1.60;;;;;;;-147.86;100.00;25281.60;105629;1260;74363;-58
2024/02/04 02:48:37;;;;;;;2.60;1.50;;;;;;;-147.86;100.00;24977.60;105801;1253;62158;-59
2024/02/04 02:51:06;;;;;;;1.50;1.40;;;;;;;-147.86;100.00;24712.13;105661;1259;72589;-60
2024/02/04 02:53:33;;;;;;;3.60;1.50;;;;;;;-147.86;100.00;24336.81;105696;1254;60580;-59
2024/02/04 02:56:01;;;;;;;4.70;1.90;;;;;;;-147.86;100.00;23992.33;105651;1254;60356;-59
2024/02/04 02:58:31;;;;;;;2.80;1.50;;;;;;;-147.86;100.00;23621.43;105629;1254;72617;-63
2024/02/04 03:00:58;;;;;;;4.90;1.80;;;;;;;-147.86;100.00;23230.65;105691;1259;63185;-61
2024/02/04 03:03:26;;;;;;;7.10;2.20;;;;;;;-147.86;100.00;22787.68;105654;1257;71731;-61
2024/02/04 03:05:54;;;;;;;2.70;1.70;;;;;;;-147.86;100.00;22502.54;105644;1255;60559;-61
2024/02/04 03:08:23;;;;;;;1.70;1.60;;;;;;;-147.86;100.00;22750.43;105640;1254;60603;-62
2024/02/04 03:10:50;;;;;;;4.30;2.00;;;;;;;-147.86;100.00;23720.35;105673;1254;73784;-61
2024/02/04 03:13:18;;;;;;;2.80;1.40;;;;;;;-147.86;100.00;24124.07;105670;1254;62226;-61
2024/02/04 03:15:47;;;;;;;3.60;1.60;;;;;;;-147.86;100.00;24547.19;105654;1259;71636;-60
2024/02/04 03:18:14;;;;;;;2.80;1.40;;;;;;;-147.86;100.00;23967.33;105727;1259;60809;-59
2024/02/04 03:20:42;;;;;;;2.50;1.40;;;;;;;-147.86;100.00;23517.67;105660;1256;60537;-59
2024/02/04 03:23:10;;;;;;;5.20;1.60;;;;;;;-147.86;100.00;22935.24;105636;1259;73818;-57
2024/02/04 03:25:38;;;;;;;2.50;1.30;;;;;;;-147.86;100.00;22361.49;105572;1254;64313;-58
2024/02/04 03:28:05;;;;;;;4.20;1.30;;;;;;;-147.86;100.00;22004.73;105515;1254;72649;-61
2024/02/04 03:30:34;;;;;;;5.70;1.20;;;;;;;-147.86;100.00;21726.31;105509;1259;60785;-61
2024/02/04 03:33:01;;;;;;;1.60;0.70;;;;;;;-147.86;100.00;21744.61;105679;1254;60475;-60
2024/02/04 03:35:30;;;;;;;3.30;1.30;;;;;;;-147.86;100.00;21961.21;105644;1257;72869;-60
2024/02/04 03:37:57;;;;;;;3.50;1.40;;;;;;;-147.86;100.00;22732.04;105607;1254;62550;-60
2024/02/04 03:40:25;;;;;;;3.20;1.80;;;;;;;-147.86;100.00;23852.90;105686;1254;71673;-60
2024/02/04 03:42:53;;;;;;;3.50;1.90;;;;;;;-147.86;100.00;25237.96;105658;1254;60485;-60
2024/02/04 03:45:21;;;;;;;2.30;1.90;;;;;;;-147.86;100.00;26540.81;105622;1255;60409;-59
2024/02/04 03:47:49;;;;;;;3.60;2.30;;;;;;;-147.86;100.00;27711.85;105669;1254;73813;-60
2024/02/04 03:50:17;;;;;;;3.20;2.30;;;;;;;-147.86;100.00;28479.87;105663;1253;63741;-60
2024/02/04 03:52:44;;;;;;;4.70;2.60;;;;;;;-147.86;100.00;29071.30;105705;1254;71379;-61
2024/02/04 03:55:12;;;;;;;2.20;2.00;;;;;;;-147.86;100.00;29488.78;105628;1256;60495;-60
2024/02/04 03:57:41;;;;;;;4.60;2.40;;;;;;;-147.86;100.00;29513.73;105648;1254;60491;-59
2024/02/04 04:00:10;;;;;;;2.40;2.20;;;;;;;-147.86;100.00;29037.32;105725;1254;72580;-59
2024/02/04 04:02:37;;;;;;;3.20;2.60;;;;;;;-147.86;100.00;28858.25;105718;1257;65168;-60
2024/02/04 04:05:06;;;;;;;2.90;2.60;;;;;;;-147.86;100.00;28869.94;105838;1257;72697;-60
2024/02/04 04:07:34;;;;;;;4.60;3.10;;;;;;;-147.86;100.00;28730.70;105658;1253;60726;-61
2024/02/04 04:10:02;;;;;;;3.90;2.60;;;;;;;-147.86;100.00;28719.75;105802;1258;60706;-59
2024/02/04 04:12:30;;;;;;;5.50;2.80;;;;;;;-147.86;100.00;28543.02;105666;1254;73774;-59
2024/02/04 04:14:58;;;;;;;4.10;2.40;;;;;;;-147.86;100.00;28392.43;105699;1254;63109;-58
2024/02/04 04:17:25;;;;;;;3.20;1.90;;;;;;;-147.86;100.00;28178.27;105862;1256;72646;-60
2024/02/04 04:19:53;;;;;;;8.60;2.40;;;;;;;-147.86;100.00;28042.14;105791;1255;61650;-58
2024/02/04 04:22:21;;;;;;;2.60;2.30;;;;;;;-147.86;100.00;27965.32;105746;1258;60434;-60
2024/02/04 04:24:48;;;;;;;3.00;2.50;;;;;;;-147.86;100.00;28117.44;105876;1254;73828;-61
2024/02/04 04:27:16;;;;;;;4.10;2.50;;;;;;;-147.86;100.00;28365.92;105701;1253;63105;-61
2024/02/04 04:29:44;;;;;;;5.60;2.40;;;;;;;-147.86;100.00;28563.31;105678;1254;72242;-58
2024/02/04 04:32:11;;;;;;;2.70;2.50;;;;;;;-147.86;100.00;28747.46;105671;1254;61183;-59
2024/02/04 04:34:39;;;;;;;4.40;2.60;;;;;;;-147.86;100.00;28961.25;105872;1256;60434;-61
2024/02/04 04:37:07;;;;;;;4.50;2.70;;;;;;;-147.86;100.00;29129.41;105685;1256;73781;-59
2024/02/04 04:39:34;;;;;;;3.40;2.50;;;;;;;-147.86;100.00;29110.68;105686;1255;63244;-61
2024/02/04 04:42:03;;;;;;;4.80;2.60;;;;;;;-147.86;100.00;29071.26;105635;1257;71499;-61
2024/02/04 04:44:30;;;;;;;2.40;2.20;;;;;;;-147.86;100.00;28963.20;105704;1255;60558;-59
2024/02/04 04:46:58;;;;;;;4.60;2.20;;;;;;;-147.86;100.00;28870.33;105830;1253;60370;-58
2024/02/04 04:49:26;;;;;;;2.50;1.90;;;;;;;-147.86;100.00;28733.77;105851;1254;72592;-58
2024/02/04 04:51:53;;;;;;;2.80;2.20;;;;;;;-147.86;100.00;28624.16;105658;1253;63107;-59
2024/02/04 05:51:26;;;;;;;2.80;1.60;;;;;;;-147.86;100.00;578.88;102936;1289;601643;-58
2024/02/04 05:53:54;;;;;;;3.40;1.60;;;;;;;-147.86;100.00;-9564.04;105155;1267;60953;-61
2024/02/04 05:56:22;;;;;;;4.60;1.60;;;;;;;-147.86;100.00;-9769.68;105073;1264;59455;-58
2024/02/04 05:58:51;;;;;;;3.00;1.20;;;;;;;-147.86;100.00;-11001.32;105172;1264;71016;-59
2024/02/04 06:01:18;;;;;;;6.20;1.60;;;;;;;-147.86;100.00;-11815.62;104915;1264;64432;-60
2024/02/04 06:03:46;;;;;;;5.00;1.50;;;;;;;-147.86;100.00;-12357.63;105093;1264;71382;-57
2024/02/04 06:06:19;;;;;;;6.60;1.60;;;;;;;-147.86;100.00;-13114.54;104998;1264;246389;-57
2024/02/04 06:08:48;;;;;;;3.90;1.00;;;;;;;-147.86;100.00;-14188.42;105242;1260;59958;-60
2024/02/04 06:11:15;;;;;;;7.90;1.40;;;;;;;-147.86;100.00;-15140.97;105221;1267;71096;-59
2024/02/04 06:13:44;;;;;;;3.60;1.50;;;;;;;-147.86;100.00;-16859.04;105249;1265;63180;-59
2024/02/04 06:16:12;;;;;;;4.50;1.10;;;;;;;-147.86;100.00;-17609.17;105233;1267;71429;-61
2024/02/04 06:18:40;;;;;;;4.40;0.90;;;;;;;-147.86;100.00;-17609.17;105198;1267;60866;-60
2024/02/04 06:21:09;;;;;;;4.60;1.30;;;;;;;-147.86;100.00;-17609.17;105251;1267;59995;-57
2024/02/04 06:23:38;;;;;;;4.90;1.30;;;;;;;-147.86;100.00;-17609.17;105238;1267;73082;-59
2024/02/04 06:26:06;;;;;;;4.50;0.90;;;;;;;-147.86;100.00;-17609.17;105255;1261;63585;-60
2024/02/04 06:28:34;;;;;;;4.00;1.10;;;;;;;-147.86;100.00;-17609.17;105199;1264;71354;-61
2024/02/04 06:31:03;;;;;;;2.30;1.00;;;;;;;-147.86;100.00;-17609.17;105138;1270;59743;-58
2024/02/04 06:33:31;;;;;;;1.50;1.00;;;;;;;-147.86;100.00;-17609.17;105250;1263;59957;-60
2024/02/04 06:35:59;;;;;;;4.60;1.50;;;;;;;-147.86;100.00;-17609.17;105237;1260;70466;-56
2024/02/04 06:38:27;;;;;;;2.50;1.40;;;;;;;-147.86;100.00;-17519.54;105217;1266;63499;-60
2024/02/04 06:40:55;;;;;;;0.80;0.80;;;;;;;-147.86;100.00;-16887.92;105208;1264;72010;-60
2024/02/04 06:43:22;;;;;;;3.20;1.30;;;;;;;-147.86;100.00;-15601.03;105183;1267;60379;-56
2024/02/04 06:45:50;;;;;;;4.30;1.60;;;;;;;-147.86;100.00;-13903.97;105198;1267;59760;-57
2024/02/04 06:48:19;;;;;;;3.60;1.70;;;;;;;-147.86;100.00;-11945.55;105201;1267;72981;-57
2024/02/04 06:50:47;;;;;;;3.10;1.50;;;;;;;-147.86;100.00;-9689.48;105238;1264;62240;-58
2024/02/04 06:53:15;;;;;;;3.10;1.10;;;;;;;-147.86;100.00;-7168.89;105201;1266;72589;-58
2024/02/04 06:55:43;;;;;;;6.00;2.00;;;;;;;-147.86;100.00;-4910.47;105227;1267;61163;-58
2024/02/04 06:58:11;;;;;;;6.00;2.00;;;;;;;-147.86;100.00;-2769.55;105176;1263;59699;-60
2024/02/04 07:00:39;;;;;;;2.20;1.70;;;;;;;-147.86;100.00;-1018.44;105153;1267;73004;-57
2024/02/04 07:03:07;;;;;;;2.50;1.60;;;;;;;-147.86;100.00;657.51;105231;1264;63313;-59
2024/02/04 07:05:35;;;;;;;2.10;1.50;;;;;;;-147.86;100.00;2130.01;105151;1267;71079;-59
2024/02/04 07:08:03;;;;;;;4.60;2.30;;;;;;;-147.86;100.00;3477.49;105147;1267;60513;-58
2024/02/04 07:10:30;;;;;;;3.40;2.00;;;;;;;-147.86;100.00;4925.52;105220;1267;59564;-60
2024/02/04 07:12:58;;;;;;;2.80;2.10;;;;;;;-147.86;100.00;6404.27;105191;1266;71794;-58
2024/02/04 07:15:26;;;;;;;6.60;2.50;;;;;;;-147.86;100.00;7075.73;105188;1267;64514;-56
2024/02/04 07:17:53;;;;;;;3.90;2.30;;;;;;;-147.86;100.00;7275.91;105203;1263;71379;-60
2024/02/04 07:20:21;;;;;;;3.50;2.20;;;;;;;-147.86;100.00;6856.09;105139;1267;60451;-58
2024/02/04 07:22:49;;;;;;;5.40;2.40;;;;;;;-147.86;100.00;6572.53;105239;1266;59675;-59
2024/02/04 07:25:17;;;;;;;6.10;2.80;;;;;;;-147.86;100.00;6410.75;105110;1267;72291;-60
2024/02/04 07:27:44;;;;;;;6.60;2.20;;;;;;;-147.86;100.00;5420.51;105209;1267;63191;-58
2024/02/04 07:30:12;;;;;;;5.40;2.10;;;;;;;-147.86;100.00;3912.61;105220;1267;71367;-60
2024/02/04 07:32:40;;;;;;;5.00;2.00;;;;;;;-147.86;100.00;1104.30;105368;1264;59672;-61
2024/02/04 07:35:08;;;;;;;5.80;1.60;;;;;;;-147.86;100.00;-4000.99;105368;1263;59832;-58
2024/02/04 07:37:36;;;;;;;5.80;2.20;;;;;;;-147.86;100.00;-8427.17;105256;1261;71738;-61
2024/02/04 07:40:06;;;;;;;4.50;1.50;;;;;;;-147.86;100.00;-12950.54;105400;1263;63159;-60
2024/02/04 07:42:34;;;;;;;5.10;1.40;;;;;;;-147.86;100.00;-16453.40;105420;1261;72594;-60
2024/02/04 07:45:08;;;;;;;5.30;1.70;;;;;;;-147.86;100.00;-17609.17;105221;1264;59745;-59
2024/02/04 07:47:36;;;;;;;9.80;1.70;;;;;;;-147.86;100.00;-17609.17;105402;1263;59638;-59
2024/02/04 07:50:04;;;;;;;1.40;0.90;;;;;;;-147.86;100.00;-17609.17;105308;1260;71732;-60
2024/02/04 07:52:32;;;;;;;2.20;1.30;;;;;;;-147.86;100.00;-17609.17;105321;1264;63226;-59
2024/02/04 07:55:00;;;;;;;3.70;1.60;;;;;;;-147.86;100.00;-17609.17;105384;1261;71464;-60
2024/02/04 07:58:17;;;;;;;4.80;1.60;;;;;;;-147.86;100.00;-17609.17;102568;1291;600339;-59
2024/02/04 08:00:44;;;;;;;6.30;1.30;;;;;;;-147.86;100.00;-17609.17;104813;1268;59340;-60
2024/02/04 08:03:12;;;;;;;9.10;2.00;;;;;;;-147.86;100.00;-17609.17;104794;1271;59345;-59
2024/02/04 08:05:40;;;;;;;6.50;1.50;;;;;;;-147.86;100.00;-17609.17;104918;1265;71113;-58
2024/02/04 08:08:08;;;;;;;2.00;1.20;;;;;;;-147.86;100.00;-17609.17;104823;1267;63166;-57
2024/02/04 08:10:36;;;;;;;8.30;1.60;;;;;;;-147.86;100.00;-17609.17;104829;1266;71466;-58
2024/02/04 08:13:04;;;;;;;4.40;1.60;;;;;;;-147.86;100.00;-17609.17;104919;1266;218969;-60
2024/02/04 08:15:32;;;;;;;4.20;1.60;;;;;;;-147.86;100.00;-17609.17;105096;1265;59408;-60
2024/02/04 08:17:59;;;;;;;4.20;1.50;;;;;;;-147.86;100.00;-17609.17;105022;1263;71040;-60
2024/02/04 08:20:29;;;;;;;7.60;1.50;;;;;;;-147.86;100.00;-17609.17;105565;1258;63138;-61
2024/02/04 08:22:56;;;;;;;12.20;1.80;;;;;;;-147.86;100.00;-17609.17;105495;1257;71973;-58
2024/02/04 08:25:24;;;;;;;8.40;1.20;;;;;;;-147.86;100.00;-17609.17;105536;1261;60109;-59
2024/02/04 08:27:52;;;;;;;2.80;1.40;;;;;;;-147.86;100.00;-17609.17;105451;1259;60098;-59
2024/02/04 08:30:21;;;;;;;3.10;1.40;;;;;;;-147.86;100.00;-17609.17;105541;1257;71768;-60
2024/02/04 08:32:49;;;;;;;3.70;1.50;;;;;;;-147.86;100.00;-17609.17;105554;1260;64360;-56
2024/02/04 08:35:16;;;;;;;7.30;1.30;;;;;;;-147.86;100.00;-17609.17;105499;1259;71453;-60
2024/02/04 08:37:44;;;;;;;6.50;1.20;;;;;;;-147.86;100.00;-17609.17;105494;1259;59689;-60
2024/02/04 08:40:12;;;;;;;5.10;1.20;;;;;;;-147.86;100.00;-17609.17;105496;1262;59762;-60
2024/02/04 08:42:40;;;;;;;4.30;1.60;;;;;;;-147.86;100.00;-17609.17;105565;1257;71844;-62
2024/02/04 08:45:08;;;;;;;5.60;1.50;;;;;;;-147.86;100.00;-17609.17;105451;1257;63022;-58
2024/02/04 08:47:36;;;;;;;6.60;1.20;;;;;;;-147.86;100.00;-17609.17;105538;1257;71388;-61
2024/02/04 08:50:05;;;;;;;7.40;1.50;;;;;;;-147.86;100.00;-17609.17;105488;1259;59811;-58
2024/02/04 08:52:33;;;;;;;4.20;1.30;;;;;;;-147.86;100.00;-17609.17;105446;1262;59636;-61
2024/02/04 08:55:03;;;;;;;4.30;1.50;;;;;;;-147.86;100.00;-17609.17;105438;1258;73060;-59
2024/02/04 08:57:32;;;;;;;5.30;1.40;;;;;;;-147.86;100.00;-17609.17;105474;1257;63141;-57
2024/02/04 08:59:59;;;;;;;5.10;1.80;;;;;;;-147.86;100.00;-17609.17;105464;1262;72628;-61
2024/02/04 09:02:27;;;;;;;4.20;1.80;;;;;;;-147.86;100.00;-17609.17;105417;1264;59732;-57
2024/02/04 09:04:55;;;;;;;5.70;1.30;;;;;;;-147.86;100.00;-17609.17;105425;1263;59681;-59
2024/02/04 09:07:23;;;;;;;4.10;1.60;;;;;;;-147.86;100.00;-17609.17;105452;1257;71900;-59
2024/02/04 09:09:51;;;;;;;4.60;1.40;;;;;;;-147.86;100.00;-17609.17;105392;1258;63295;-56
2024/02/04 09:12:18;;;;;;;3.80;1.30;;;;;;;-147.86;100.00;-17609.17;105357;1264;71897;-57
2024/02/04 09:14:47;;;;;;;2.40;1.20;;;;;;;-147.86;100.00;-17609.17;105424;1258;59795;-60
2024/02/04 09:17:15;;;;;;;2.30;1.00;;;;;;;-147.86;100.00;-17609.17;105420;1259;60059;-61
2024/02/04 09:19:42;;;;;;;4.20;1.40;;;;;;;-147.86;100.00;-17609.17;105352;1259;71827;-61
2024/02/04 09:22:10;;;;;;;8.00;1.90;;;;;;;-147.86;100.00;-17609.17;105343;1258;63115;-62
2024/02/04 09:24:38;;;;;;;4.90;1.30;;;;;;;-147.86;100.00;-17609.17;105297;1260;71388;-59
2024/02/04 09:27:06;;;;;;;6.30;1.70;;;;;;;-147.86;100.00;-17609.17;105357;1259;59762;-60
2024/02/04 09:29:34;;;;;;;4.80;1.60;;;;;;;-147.86;100.00;-17609.17;105279;1264;59620;-60
2024/02/04 09:32:02;;;;;;;3.60;1.30;;;;;;;-147.86;100.00;-17609.17;105288;1263;73115;-57
2024/02/04 09:34:30;;;;;;;6.90;1.60;;;;;;;-147.86;100.00;-17609.17;105275;1259;63129;-55
2024/02/04 09:36:58;;;;;;;7.50;1.40;;;;;;;-147.86;100.00;-17609.17;105353;1260;71552;-60
2024/02/04 09:39:26;;;;;;;10.10;2.00;;;;;;;-147.86;100.00;-17609.17;105328;1259;59733;-55
2024/02/04 09:41:55;;;;;;;4.60;1.50;;;;;;;-147.86;100.00;-17609.17;105390;1263;59697;-56
2024/02/04 09:44:23;;;;;;;6.70;1.90;;;;;;;-147.86;100.00;-17609.17;105323;1258;71794;-59
2024/02/04 09:46:50;;;;;;;6.10;1.40;;;;;;;-147.86;100.00;-17609.17;105359;1259;63145;-59
2024/02/04 09:49:19;;;;;;;4.70;1.50;;;;;;;-147.86;100.00;-17609.17;105333;1259;71564;-62
2024/02/04 09:51:47;;;;;;;5.20;1.90;;;;;;;-147.86;100.00;-17609.17;105354;1264;59750;-59
2024/02/04 09:54:15;;;;;;;6.80;2.10;;;;;;;-147.86;100.00;-17609.17;105386;1263;59675;-59
2024/02/04 09:56:43;;;;;;;6.10;1.80;;;;;;;-147.86;99.42;-17609.17;105338;1263;73105;-59
2024/02/04 09:59:11;;;;;;;6.20;1.90;;;;;;;-147.86;99.47;-17609.17;105277;1257;63341;-57
2024/02/04 10:01:39;;;;;;;4.30;1.70;;;;;;;-147.86;98.90;-17609.17;105312;1259;71400;-56
2024/02/04 10:04:07;;;;;;;3.80;1.80;;;;;;;-147.86;99.62;-17609.17;105307;1259;59721;-59
2024/02/04 10:06:35;;;;;;;3.70;1.60;;;;;;;-147.86;99.95;-17609.17;105387;1263;59724;-55
2024/02/04 10:09:03;;;;;;;5.90;2.00;;;;;;;-147.86;100.00;-17609.17;105347;1257;71850;-57
2024/02/04 10:11:31;;;;;;;8.90;2.00;;;;;;;-147.86;100.00;-17609.17;105309;1263;63142;-59
2024/02/04 10:13:59;;;;;;;8.10;1.70;;;;;;;-147.86;100.00;-17609.17;105323;1259;71423;-56
2024/02/04 10:16:27;;;;;;;4.00;1.90;;;;;;;-147.86;99.93;-17609.17;105317;1258;59731;-61
2024/02/04 10:18:56;;;;;;;3.80;1.30;;;;;;;-147.86;99.49;-17609.17;105249;1257;59560;-60
2024/02/04 10:21:25;;;;;;;6.50;1.80;;;;;;;-147.86;99.11;-17609.17;105309;1258;72815;-59
2024/02/04 10:23:53;;;;;;;3.20;1.50;;;;;;;-147.86;98.97;-17609.17;105376;1262;63256;-56
2024/02/04 10:26:21;;;;;;;5.70;1.60;;;;;;;-147.86;97.80;-17609.17;105349;1259;71233;-56
2024/02/04 10:28:49;;;;;;;6.80;1.80;;;;;;;-147.86;97.84;-17609.17;105392;1257;60083;-58
2024/02/04 10:31:17;;;;;;;6.10;1.80;;;;;;;-147.86;97.71;-17609.17;105339;1258;59560;-59
2024/02/04 10:33:45;;;;;;;5.40;1.80;;;;;;;-147.86;96.92;-17609.17;105357;1264;73074;-58
2024/02/04 10:36:13;;;;;;;7.30;1.90;;;;;;;-147.86;96.15;-17609.17;105336;1263;66280;-58
2024/02/04 10:38:41;;;;;;;6.20;2.00;;;;;;;-147.86;96.64;-17609.17;105339;1257;70310;-58
2024/02/04 10:41:09;;;;;;;3.90;1.50;;;;;;;-147.86;96.47;-17609.17;105313;1264;61914;-60
2024/02/04 10:43:37;;;;;;;3.50;1.60;;;;;;;-147.86;95.46;-17609.17;105253;1258;60098;-59
2024/02/04 10:46:11;;;;;;;6.20;1.60;;;;;;;-147.86;95.71;-17609.17;105254;1258;73285;-59
2024/02/04 10:48:44;;;;;;;4.50;1.30;;;;;;;-147.86;95.74;-17609.17;105344;1258;66833;-59
2024/02/04 10:51:14;;;;;;;5.20;1.50;;;;;;;-147.86;95.86;-17609.17;105371;1259;71473;-61
2024/02/04 10:53:46;;;;;;;5.60;1.60;;;;;;;-147.86;95.09;-17609.17;105495;1259;59692;-58
2024/02/04 10:56:19;;;;;;;5.60;1.60;;;;;;;-147.86;94.83;-17609.17;105440;1258;60006;-58
2024/02/04 10:58:47;;;;;;;6.20;1.50;;;;;;;-147.86;94.03;-17609.17;105369;1259;71789;-61
2024/02/04 11:01:16;;;;;;;3.50;1.30;;;;;;;-147.86;94.41;-17609.17;105376;1258;63212;-59
2024/02/04 11:03:45;;;;;;;4.60;1.60;;;;;;;-147.86;94.04;-17609.17;105396;1262;73279;-54
2024/02/04 11:06:12;;;;;;;2.50;1.30;;;;;;;-147.86;93.66;-17609.17;105366;1259;59680;-60
2024/02/04 11:08:41;;;;;;;11.10;1.80;;;;;;;-147.86;92.70;-17609.17;105517;1263;60658;-57
2024/02/04 11:51:48;;;;;;;6.80;2.30;;;;;;;-147.86;89.09;-17609.17;103660;1284;600665;-58
2024/02/04 12:51:26;;;;;;;10.10;3.30;;;;;;;-147.86;100.00;-17609.17;102737;1295;600286;-58
2024/02/04 12:54:08;;;;;;;10.70;4.20;;;;;;;-147.86;100.00;-17609.17;104912;1270;59238;-59
2024/02/04 12:57:10;;;;;;;9.30;3.70;;;;;;;-147.86;100.00;-17609.17;104904;1269;59244;-57
2024/02/04 12:59:38;;;;;;;10.20;3.40;;;;;;;-147.86;100.00;-17609.17;105315;1257;72170;-60
2024/02/04 13:02:08;;;;;;;12.60;4.40;;;;;;;-147.86;100.00;-17609.17;105440;1258;63410;-60
2024/02/04 13:04:37;;;;;;;9.80;4.70;;;;;;;-147.86;100.00;-17609.17;105384;1255;261705;-60
2024/02/04 13:07:14;;;;;;;15.00;5.20;;;;;;;-147.86;100.00;-17609.17;105621;1261;61188;-56
2024/02/04 13:09:43;;;;;;;14.20;6.40;;;;;;;-147.86;100.00;-17609.17;105652;1255;60007;-57
2024/02/04 13:12:11;;;;;;;12.20;5.80;;;;;;;-147.86;100.00;-17609.17;105615;1258;73272;-58
2024/02/04 13:14:39;;;;;;;17.90;6.80;;;;;;;-147.86;100.00;-17609.17;105595;1260;63334;-59
2024/02/04 13:17:07;;;;;;;16.20;6.20;;;;;;;-147.86;100.00;-17609.17;105647;1257;74592;-59
2024/02/04 13:19:35;;;;;;;14.90;6.40;;;;;;;-147.86;100.00;-17609.17;105598;1258;60318;-58
2024/02/04 13:22:09;;;;;;;16.20;6.70;;;;;;;-147.86;100.00;-17609.17;105595;1257;59973;-56
2024/02/04 13:24:39;;;;;;;12.90;6.10;;;;;;;-147.86;100.00;-17609.17;105596;1256;71812;-57
2024/02/04 13:27:07;;;;;;;13.10;5.50;;;;;;;-147.86;100.00;-17609.17;105671;1257;64935;-61
2024/02/04 13:29:35;;;;;;;9.90;5.40;;;;;;;-147.86;100.00;-17609.17;105669;1260;72545;-60
2024/02/04 13:32:04;;;;;;;15.90;6.20;;;;;;;-147.86;100.00;-17609.17;105657;1256;59656;-57
2024/02/04 13:34:32;;;;;;;15.30;6.80;;;;;;;-147.86;100.00;-17609.17;105611;1257;60623;-57
2024/02/04 13:37:01;;;;;;;12.00;6.20;;;;;;;-147.86;100.00;-17609.17;105524;1257;71787;-59
2024/02/04 13:39:30;;;;;;;12.10;6.40;;;;;;;-147.86;100.00;-17609.17;105640;1255;65562;-58
2024/02/04 13:41:58;;;;;;;13.30;6.80;;;;;;;-147.86;100.00;-17609.17;105632;1258;73187;-59